sensor_id;sensor_type;location;lat;lon;timestamp;pressure;altitude;pressure_sealevel;temperature;humidity
11347;BME280;5728;42.722;23.258;2022-08-24T00:01:14;94524.28;;;19.80;100.00
11347;BME280;5728;42.722;23.258;2022-08-24T00:03:43;94524.53;;;19.91;100.00
11347;BME280;5728;42.722;23.258;2022-08-24T00:06:12;94525.09;;;19.49;100.00
11347;BME280;5728;42.722;23.258;2022-08-24T00:08:39;94530.53;;;19.46;100.00
11347;BME280;5728;42.722;23.258;2022-08-24T00:11:07;94533.81;;;19.49;100.00
11347;BME280;5728;42.722;23.258;2022-08-24T00:13:34;94539.69;;;19.54;100.00
11347;BME280;5728;42.722;23.258;2022-08-24T00:16:03;94534.59;;;19.01;100.00
11347;BME280;5728;42.722;23.258;2022-08-24T00:18:31;94535.63;;;18.82;100.00
11347;BME280;5728;42.722;23.258;2022-08-24T00:20:59;94535.84;;;18.77;100.00
11347;BME280;5728;42.722;23.258;2022-08-24T00:23:26;94519.09;;;18.80;100.00
11347;BME280;5728;42.722;23.258;2022-08-24T00:25:53;94543.25;;;18.69;100.00
11347;BME280;5728;42.722;23.258;2022-08-24T00:28:20;94538.78;;;18.88;100.00
11347;BME280;5728;42.722;23.258;2022-08-24T00:30:47;94537.72;;;18.75;100.00
11347;BME280;5728;42.722;23.258;2022-08-24T00:33:14;94547.91;;;18.64;100.00
11347;BME280;5728;42.722;23.258;2022-08-24T00:35:42;94542.66;;;18.64;100.00
11347;BME280;5728;42.722;23.258;2022-08-24T00:38:09;94539.97;;;18.30;100.00
11347;BME280;5728;42.722;23.258;2022-08-24T00:40:39;94542.94;;;18.58;100.00
11347;BME280;5728;42.722;23.258;2022-08-24T00:43:08;94554.16;;;18.62;100.00
11347;BME280;5728;42.722;23.258;2022-08-24T00:45:39;94544.41;;;18.64;100.00
11347;BME280;5728;42.722;23.258;2022-08-24T00:48:14;94547.03;;;18.81;100.00
11347;BME280;5728;42.722;23.258;2022-08-24T00:50:47;94542.94;;;18.58;100.00
11347;BME280;5728;42.722;23.258;2022-08-24T00:53:19;94547.59;;;18.87;100.00
11347;BME280;5728;42.722;23.258;2022-08-24T00:55:52;94548.91;;;18.79;100.00
11347;BME280;5728;42.722;23.258;2022-08-24T00:58:26;94547.38;;;18.75;100.00
11347;BME280;5728;42.722;23.258;2022-08-24T01:00:56;94545.22;;;18.83;100.00
11347;BME280;5728;42.722;23.258;2022-08-24T01:03:24;94558.97;;;18.88;100.00
11347;BME280;5728;42.722;23.258;2022-08-24T01:05:54;94554.47;;;18.73;100.00
11347;BME280;5728;42.722;23.258;2022-08-24T01:08:22;94549.53;;;18.84;100.00
11347;BME280;5728;42.722;23.258;2022-08-24T01:10:51;94553.22;;;18.97;100.00
11347;BME280;5728;42.722;23.258;2022-08-24T01:13:19;94556.00;;;18.94;100.00
11347;BME280;5728;42.722;23.258;2022-08-24T01:15:49;94559.34;;;18.97;100.00
11347;BME280;5728;42.722;23.258;2022-08-24T01:18:19;94552.75;;;19.06;100.00
11347;BME280;5728;42.722;23.258;2022-08-24T01:21:13;94556.47;;;19.02;100.00
11347;BME280;5728;42.722;23.258;2022-08-24T01:23:43;94571.13;;;19.06;100.00
11347;BME280;5728;42.722;23.258;2022-08-24T01:26:14;94571.00;;;18.92;100.00
11347;BME280;5728;42.722;23.258;2022-08-24T01:28:45;94570.84;;;18.95;100.00
11347;BME280;5728;42.722;23.258;2022-08-24T01:31:12;94573.75;;;19.06;100.00
11347;BME280;5728;42.722;23.258;2022-08-24T01:33:41;94586.28;;;19.01;100.00
11347;BME280;5728;42.722;23.258;2022-08-24T01:36:17;94580.84;;;19.05;100.00
11347;BME280;5728;42.722;23.258;2022-08-24T01:38:47;94578.88;;;18.92;100.00
11347;BME280;5728;42.722;23.258;2022-08-24T01:41:15;94578.59;;;18.98;100.00
11347;BME280;5728;42.722;23.258;2022-08-24T01:43:41;94592.31;;;19.20;100.00
11347;BME280;5728;42.722;23.258;2022-08-24T01:46:08;94590.41;;;19.06;100.00
11347;BME280;5728;42.722;23.258;2022-08-24T01:48:35;94582.44;;;19.08;100.00
11347;BME280;5728;42.722;23.258;2022-08-24T01:51:02;94581.44;;;19.10;100.00
11347;BME280;5728;42.722;23.258;2022-08-24T01:53:29;94572.25;;;19.02;100.00
11347;BME280;5728;42.722;23.258;2022-08-24T01:55:58;94569.75;;;18.99;100.00
11347;BME280;5728;42.722;23.258;2022-08-24T01:58:25;94577.50;;;19.02;100.00
11347;BME280;5728;42.722;23.258;2022-08-24T02:00:52;94576.59;;;19.03;100.00
11347;BME280;5728;42.722;23.258;2022-08-24T02:03:19;94577.19;;;19.08;100.00
11347;BME280;5728;42.722;23.258;2022-08-24T02:05:46;94585.59;;;19.15;100.00
11347;BME280;5728;42.722;23.258;2022-08-24T02:08:13;94590.31;;;19.25;100.00
11347;BME280;5728;42.722;23.258;2022-08-24T02:10:40;94597.88;;;19.14;100.00
11347;BME280;5728;42.722;23.258;2022-08-24T02:13:08;94599.66;;;19.13;100.00
11347;BME280;5728;42.722;23.258;2022-08-24T02:15:37;94596.22;;;19.13;100.00
11347;BME280;5728;42.722;23.258;2022-08-24T02:18:05;94597.72;;;19.34;100.00
11347;BME280;5728;42.722;23.258;2022-08-24T02:20:33;94604.06;;;19.47;100.00
11347;BME280;5728;42.722;23.258;2022-08-24T02:23:01;94608.13;;;19.37;100.00
11347;BME280;5728;42.722;23.258;2022-08-24T02:25:28;94604.84;;;19.32;100.00
11347;BME280;5728;42.722;23.258;2022-08-24T02:27:56;94608.88;;;19.39;100.00
11347;BME280;5728;42.722;23.258;2022-08-24T02:30:25;94620.41;;;19.37;100.00
11347;BME280;5728;42.722;23.258;2022-08-24T02:32:52;94618.47;;;19.23;100.00
11347;BME280;5728;42.722;23.258;2022-08-24T02:35:19;94614.88;;;19.24;100.00
11347;BME280;5728;42.722;23.258;2022-08-24T02:37:46;94615.44;;;19.13;100.00
11347;BME280;5728;42.722;23.258;2022-08-24T02:40:13;94621.41;;;19.17;100.00
11347;BME280;5728;42.722;23.258;2022-08-24T02:42:40;94619.38;;;19.22;100.00
11347;BME280;5728;42.722;23.258;2022-08-24T02:45:09;94619.59;;;19.35;100.00
11347;BME280;5728;42.722;23.258;2022-08-24T02:47:37;94616.28;;;19.31;100.00
11347;BME280;5728;42.722;23.258;2022-08-24T02:50:05;94622.31;;;19.50;100.00
11347;BME280;5728;42.722;23.258;2022-08-24T02:52:33;94623.16;;;19.34;100.00
11347;BME280;5728;42.722;23.258;2022-08-24T02:55:01;94619.91;;;19.11;100.00
11347;BME280;5728;42.722;23.258;2022-08-24T02:57:27;94622.63;;;19.27;100.00
11347;BME280;5728;42.722;23.258;2022-08-24T02:59:54;94624.78;;;18.68;100.00
11347;BME280;5728;42.722;23.258;2022-08-24T03:02:21;94618.34;;;18.73;100.00
11347;BME280;5728;42.722;23.258;2022-08-24T03:04:49;94616.59;;;18.91;100.00
11347;BME280;5728;42.722;23.258;2022-08-24T03:07:16;94626.66;;;19.00;100.00
11347;BME280;5728;42.722;23.258;2022-08-24T03:09:42;94619.25;;;19.08;100.00
11347;BME280;5728;42.722;23.258;2022-08-24T03:12:09;94621.25;;;19.20;100.00
11347;BME280;5728;42.722;23.258;2022-08-24T03:14:36;94620.00;;;19.10;100.00
11347;BME280;5728;42.722;23.258;2022-08-24T03:17:03;94623.25;;;19.15;100.00
11347;BME280;5728;42.722;23.258;2022-08-24T03:19:30;94621.16;;;18.87;100.00
11347;BME280;5728;42.722;23.258;2022-08-24T03:21:58;94630.47;;;18.59;100.00
11347;BME280;5728;42.722;23.258;2022-08-24T03:24:25;94619.31;;;18.54;100.00
11347;BME280;5728;42.722;23.258;2022-08-24T03:26:52;94633.16;;;18.38;100.00
11347;BME280;5728;42.722;23.258;2022-08-24T03:29:19;94617.22;;;18.06;100.00
11347;BME280;5728;42.722;23.258;2022-08-24T03:31:46;94620.34;;;18.32;100.00
11347;BME280;5728;42.722;23.258;2022-08-24T03:34:14;94634.66;;;18.25;100.00
11347;BME280;5728;42.722;23.258;2022-08-24T03:36:42;94626.72;;;18.08;100.00
11347;BME280;5728;42.722;23.258;2022-08-24T03:39:12;94634.44;;;17.93;100.00
11347;BME280;5728;42.722;23.258;2022-08-24T03:41:39;94640.84;;;17.87;100.00
11347;BME280;5728;42.722;23.258;2022-08-24T03:44:06;94637.72;;;17.79;100.00
11347;BME280;5728;42.722;23.258;2022-08-24T03:46:35;94631.06;;;17.72;100.00
11347;BME280;5728;42.722;23.258;2022-08-24T03:49:04;94637.97;;;17.73;100.00
11347;BME280;5728;42.722;23.258;2022-08-24T03:51:32;94637.88;;;17.95;100.00
11347;BME280;5728;42.722;23.258;2022-08-24T03:54:00;94638.31;;;18.04;100.00
11347;BME280;5728;42.722;23.258;2022-08-24T03:56:28;94643.38;;;18.26;100.00
11347;BME280;5728;42.722;23.258;2022-08-24T03:58:55;94636.44;;;18.06;100.00
11347;BME280;5728;42.722;23.258;2022-08-24T04:01:22;94632.03;;;17.88;100.00
11347;BME280;5728;42.722;23.258;2022-08-24T04:03:49;94644.81;;;17.96;100.00
11347;BME280;5728;42.722;23.258;2022-08-24T04:06:19;94635.31;;;17.93;100.00
11347;BME280;5728;42.722;23.258;2022-08-24T04:08:46;94639.41;;;17.80;100.00
11347;BME280;5728;42.722;23.258;2022-08-24T04:11:15;94641.91;;;17.83;100.00
11347;BME280;5728;42.722;23.258;2022-08-24T04:13:44;94644.88;;;17.75;100.00
11347;BME280;5728;42.722;23.258;2022-08-24T04:16:15;94648.94;;;18.01;100.00
11347;BME280;5728;42.722;23.258;2022-08-24T04:18:43;94650.63;;;18.21;100.00
11347;BME280;5728;42.722;23.258;2022-08-24T04:21:15;94644.44;;;18.59;100.00
11347;BME280;5728;42.722;23.258;2022-08-24T04:23:42;94635.22;;;18.86;100.00
11347;BME280;5728;42.722;23.258;2022-08-24T04:26:09;94645.66;;;19.22;100.00
11347;BME280;5728;42.722;23.258;2022-08-24T04:28:36;94649.09;;;19.41;100.00
11347;BME280;5728;42.722;23.258;2022-08-24T04:31:05;94645.53;;;19.42;100.00
11347;BME280;5728;42.722;23.258;2022-08-24T04:33:33;94654.78;;;19.66;100.00
11347;BME280;5728;42.722;23.258;2022-08-24T04:35:59;94652.16;;;19.99;100.00
11347;BME280;5728;42.722;23.258;2022-08-24T04:38:27;94648.63;;;20.16;100.00
11347;BME280;5728;42.722;23.258;2022-08-24T04:40:54;94652.50;;;20.26;100.00
11347;BME280;5728;42.722;23.258;2022-08-24T04:43:21;94658.69;;;20.41;100.00
11347;BME280;5728;42.722;23.258;2022-08-24T04:45:48;94667.34;;;20.27;100.00
11347;BME280;5728;42.722;23.258;2022-08-24T04:48:16;94660.53;;;20.23;100.00
11347;BME280;5728;42.722;23.258;2022-08-24T04:50:44;94666.03;;;20.18;100.00
11347;BME280;5728;42.722;23.258;2022-08-24T04:53:14;94663.47;;;20.01;100.00
11347;BME280;5728;42.722;23.258;2022-08-24T04:55:43;94658.88;;;20.05;100.00
11347;BME280;5728;42.722;23.258;2022-08-24T04:58:11;94657.75;;;19.93;100.00
11347;BME280;5728;42.722;23.258;2022-08-24T05:00:39;94653.00;;;20.00;100.00
11347;BME280;5728;42.722;23.258;2022-08-24T05:03:06;94658.72;;;20.08;100.00
11347;BME280;5728;42.722;23.258;2022-08-24T05:05:34;94657.59;;;19.96;100.00
11347;BME280;5728;42.722;23.258;2022-08-24T05:08:05;94664.31;;;20.17;100.00
11347;BME280;5728;42.722;23.258;2022-08-24T05:10:31;94653.75;;;20.34;100.00
11347;BME280;5728;42.722;23.258;2022-08-24T05:12:58;94650.38;;;20.48;100.00
11347;BME280;5728;42.722;23.258;2022-08-24T05:15:25;94658.34;;;20.31;100.00
11347;BME280;5728;42.722;23.258;2022-08-24T05:17:52;94649.66;;;20.60;100.00
11347;BME280;5728;42.722;23.258;2022-08-24T05:20:19;94646.81;;;20.94;99.69
11347;BME280;5728;42.722;23.258;2022-08-24T05:22:49;94658.72;;;21.02;99.55
11347;BME280;5728;42.722;23.258;2022-08-24T05:25:16;94652.75;;;20.68;99.42
11347;BME280;5728;42.722;23.258;2022-08-24T05:27:43;94652.75;;;20.53;100.00
11347;BME280;5728;42.722;23.258;2022-08-24T05:30:11;94652.03;;;20.80;97.88
11347;BME280;5728;42.722;23.258;2022-08-24T05:32:38;94646.22;;;20.44;100.00
11347;BME280;5728;42.722;23.258;2022-08-24T05:35:06;94649.84;;;20.57;100.00
11347;BME280;5728;42.722;23.258;2022-08-24T05:37:33;94647.28;;;20.40;100.00
11347;BME280;5728;42.722;23.258;2022-08-24T05:40:02;94637.94;;;20.81;99.92
11347;BME280;5728;42.722;23.258;2022-08-24T05:42:29;94627.41;;;20.50;97.95
11347;BME280;5728;42.722;23.258;2022-08-24T05:44:57;94637.69;;;20.55;99.44
11347;BME280;5728;42.722;23.258;2022-08-24T05:47:24;94646.06;;;20.77;98.95
11347;BME280;5728;42.722;23.258;2022-08-24T05:49:51;94649.97;;;21.01;98.13
11347;BME280;5728;42.722;23.258;2022-08-24T05:52:19;94640.94;;;21.21;96.66
11347;BME280;5728;42.722;23.258;2022-08-24T05:54:50;94650.13;;;20.98;94.88
11347;BME280;5728;42.722;23.258;2022-08-24T05:57:20;94637.63;;;21.02;97.07
11347;BME280;5728;42.722;23.258;2022-08-24T05:59:47;94646.53;;;21.15;94.69
11347;BME280;5728;42.722;23.258;2022-08-24T06:02:14;94632.97;;;21.36;94.97
11347;BME280;5728;42.722;23.258;2022-08-24T06:04:41;94629.13;;;21.70;93.93
11347;BME280;5728;42.722;23.258;2022-08-24T06:07:08;94637.38;;;22.08;92.36
11347;BME280;5728;42.722;23.258;2022-08-24T06:09:35;94652.66;;;22.03;90.16
11347;BME280;5728;42.722;23.258;2022-08-24T06:12:03;94640.28;;;22.32;87.91
11347;BME280;5728;42.722;23.258;2022-08-24T06:14:31;94637.53;;;22.47;86.67
11347;BME280;5728;42.722;23.258;2022-08-24T06:16:59;94644.28;;;22.79;85.67
11347;BME280;5728;42.722;23.258;2022-08-24T06:19:26;94636.34;;;23.06;85.66
11347;BME280;5728;42.722;23.258;2022-08-24T06:21:54;94637.31;;;23.44;83.59
11347;BME280;5728;42.722;23.258;2022-08-24T06:24:23;94641.78;;;23.57;83.43
11347;BME280;5728;42.722;23.258;2022-08-24T06:27:11;94649.66;;;23.71;81.88
11347;BME280;5728;42.722;23.258;2022-08-24T06:29:48;94647.09;;;23.82;78.75
11347;BME280;5728;42.722;23.258;2022-08-24T06:32:15;94642.66;;;23.70;77.01
11347;BME280;5728;42.722;23.258;2022-08-24T06:34:41;94631.72;;;23.62;76.46
11347;BME280;5728;42.722;23.258;2022-08-24T06:37:08;94639.50;;;24.15;76.85
11347;BME280;5728;42.722;23.258;2022-08-24T06:39:35;94641.78;;;24.32;74.54
11347;BME280;5728;42.722;23.258;2022-08-24T06:42:03;94641.00;;;24.19;74.38
11347;BME280;5728;42.722;23.258;2022-08-24T06:44:30;94635.03;;;24.28;74.96
11347;BME280;5728;42.722;23.258;2022-08-24T06:46:59;94642.78;;;24.67;74.80
11347;BME280;5728;42.722;23.258;2022-08-24T06:49:26;94651.50;;;24.69;72.84
11347;BME280;5728;42.722;23.258;2022-08-24T06:51:52;94649.31;;;25.00;71.57
11347;BME280;5728;42.722;23.258;2022-08-24T06:54:19;94644.16;;;25.09;71.17
11347;BME280;5728;42.722;23.258;2022-08-24T06:56:46;94653.47;;;25.15;70.48
11347;BME280;5728;42.722;23.258;2022-08-24T06:59:13;94657.97;;;25.25;70.15
11347;BME280;5728;42.722;23.258;2022-08-24T07:01:40;94650.75;;;25.51;69.25
11347;BME280;5728;42.722;23.258;2022-08-24T07:04:09;94653.06;;;25.56;68.50
11347;BME280;5728;42.722;23.258;2022-08-24T07:06:35;94667.91;;;25.58;68.76
11347;BME280;5728;42.722;23.258;2022-08-24T07:09:03;94657.47;;;25.44;70.14
11347;BME280;5728;42.722;23.258;2022-08-24T07:11:30;94678.28;;;24.41;71.14
11347;BME280;5728;42.722;23.258;2022-08-24T07:13:59;94676.34;;;24.05;74.65
11347;BME280;5728;42.722;23.258;2022-08-24T07:16:26;94678.69;;;24.48;72.05
11347;BME280;5728;42.722;23.258;2022-08-24T07:18:53;94673.53;;;24.70;71.78
11347;BME280;5728;42.722;23.258;2022-08-24T07:21:21;94682.16;;;25.10;70.23
11347;BME280;5728;42.722;23.258;2022-08-24T07:23:48;94673.44;;;24.84;69.88
11347;BME280;5728;42.722;23.258;2022-08-24T07:26:18;94679.03;;;24.92;69.73
11347;BME280;5728;42.722;23.258;2022-08-24T07:28:47;94679.66;;;25.43;69.19
11347;BME280;5728;42.722;23.258;2022-08-24T07:31:13;94685.63;;;25.47;68.45
11347;BME280;5728;42.722;23.258;2022-08-24T07:33:40;94687.06;;;25.74;65.43
11347;BME280;5728;42.722;23.258;2022-08-24T07:36:07;94686.25;;;25.96;65.99
11347;BME280;5728;42.722;23.258;2022-08-24T07:38:35;94681.81;;;26.08;65.76
11347;BME280;5728;42.722;23.258;2022-08-24T07:41:03;94678.28;;;25.85;65.49
11347;BME280;5728;42.722;23.258;2022-08-24T07:43:30;94679.69;;;26.13;66.04
11347;BME280;5728;42.722;23.258;2022-08-24T07:45:57;94671.84;;;26.33;65.43
11347;BME280;5728;42.722;23.258;2022-08-24T07:48:23;94675.59;;;26.20;64.87
11347;BME280;5728;42.722;23.258;2022-08-24T07:50:50;94683.56;;;26.31;65.64
11347;BME280;5728;42.722;23.258;2022-08-24T07:53:18;94673.44;;;26.58;64.72
11347;BME280;5728;42.722;23.258;2022-08-24T07:55:53;94663.75;;;26.79;63.38
11347;BME280;5728;42.722;23.258;2022-08-24T07:58:20;94662.19;;;26.66;64.49
11347;BME280;5728;42.722;23.258;2022-08-24T08:00:48;94655.41;;;26.84;64.10
11347;BME280;5728;42.722;23.258;2022-08-24T08:03:15;94663.44;;;27.15;62.84
11347;BME280;5728;42.722;23.258;2022-08-24T08:05:42;94654.38;;;27.18;61.92
11347;BME280;5728;42.722;23.258;2022-08-24T08:08:09;94646.53;;;27.48;62.19
11347;BME280;5728;42.722;23.258;2022-08-24T08:10:36;94656.50;;;27.67;61.60
11347;BME280;5728;42.722;23.258;2022-08-24T08:13:05;94658.41;;;27.76;60.70
11347;BME280;5728;42.722;23.258;2022-08-24T08:15:32;94652.16;;;27.66;60.50
11347;BME280;5728;42.722;23.258;2022-08-24T08:17:59;94656.38;;;27.68;60.38
11347;BME280;5728;42.722;23.258;2022-08-24T08:20:27;94635.88;;;27.48;61.35
11347;BME280;5728;42.722;23.258;2022-08-24T08:22:53;94643.00;;;27.59;59.88
11347;BME280;5728;42.722;23.258;2022-08-24T08:25:38;94648.50;;;27.67;60.02
11347;BME280;5728;42.722;23.258;2022-08-24T08:28:06;94645.34;;;27.94;59.04
11347;BME280;5728;42.722;23.258;2022-08-24T08:30:33;94648.94;;;28.24;58.37
11347;BME280;5728;42.722;23.258;2022-08-24T08:33:00;94647.22;;;28.54;57.51
11347;BME280;5728;42.722;23.258;2022-08-24T08:35:27;94645.47;;;28.33;54.88
11347;BME280;5728;42.722;23.258;2022-08-24T08:37:54;94655.19;;;28.44;54.36
11347;BME280;5728;42.722;23.258;2022-08-24T08:40:29;94645.81;;;28.19;54.34
11347;BME280;5728;42.722;23.258;2022-08-24T08:43:04;94643.78;;;27.91;55.13
11347;BME280;5728;42.722;23.258;2022-08-24T08:46:06;94636.84;;;27.47;57.42
11347;BME280;5728;42.722;23.258;2022-08-24T08:48:57;94639.88;;;27.95;56.07
11347;BME280;5728;42.722;23.258;2022-08-24T08:52:06;94639.78;;;27.65;55.64
11347;BME280;5728;42.722;23.258;2022-08-24T08:54:45;94640.97;;;27.51;56.31
11347;BME280;5728;42.722;23.258;2022-08-24T08:57:30;94641.59;;;27.44;57.72
11347;BME280;5728;42.722;23.258;2022-08-24T09:00:07;94634.56;;;27.32;57.40
11347;BME280;5728;42.722;23.258;2022-08-24T09:02:52;94643.56;;;27.31;56.86
11347;BME280;5728;42.722;23.258;2022-08-24T09:05:42;94643.81;;;27.59;57.19
11347;BME280;5728;42.722;23.258;2022-08-24T09:08:19;94637.13;;;27.65;57.30
11347;BME280;5728;42.722;23.258;2022-08-24T09:10:55;94642.72;;;27.62;57.57
11347;BME280;5728;42.722;23.258;2022-08-24T09:13:56;94647.03;;;27.74;56.53
11347;BME280;5728;42.722;23.258;2022-08-24T09:19:45;94638.03;;;28.07;55.78
11347;BME280;5728;42.722;23.258;2022-08-24T09:22:18;94648.06;;;28.44;54.87
11347;BME280;5728;42.722;23.258;2022-08-24T09:27:55;94637.00;;;28.28;54.91
11347;BME280;5728;42.722;23.258;2022-08-24T09:30:31;94632.94;;;28.55;54.18
11347;BME280;5728;42.722;23.258;2022-08-24T09:33:05;94633.38;;;29.09;53.23
11347;BME280;5728;42.722;23.258;2022-08-24T09:35:59;94630.91;;;29.46;52.06
11347;BME280;5728;42.722;23.258;2022-08-24T09:44:35;94620.34;;;28.36;54.04
11347;BME280;5728;42.722;23.258;2022-08-24T09:53:42;94607.25;;;29.13;53.06
11347;BME280;5728;42.722;23.258;2022-08-24T09:56:43;94603.91;;;29.58;50.83
11347;BME280;5728;42.722;23.258;2022-08-24T09:59:31;94608.97;;;29.61;50.57
11347;BME280;5728;42.722;23.258;2022-08-24T10:02:19;94592.94;;;29.90;50.77
11347;BME280;5728;42.722;23.258;2022-08-24T10:04:58;94590.56;;;29.49;50.84
11347;BME280;5728;42.722;23.258;2022-08-24T10:07:37;94583.13;;;29.52;51.00
11347;BME280;5728;42.722;23.258;2022-08-24T10:10:22;94583.53;;;29.38;50.37
11347;BME280;5728;42.722;23.258;2022-08-24T10:12:58;94568.44;;;28.99;51.64
11347;BME280;5728;42.722;23.258;2022-08-24T10:15:33;94564.56;;;29.32;51.16
11347;BME280;5728;42.722;23.258;2022-08-24T10:18:21;94575.25;;;29.60;49.20
11347;BME280;5728;42.722;23.258;2022-08-24T10:21:04;94575.00;;;30.10;46.88
11347;BME280;5728;42.722;23.258;2022-08-24T10:23:45;94572.25;;;30.29;46.34
11347;BME280;5728;42.722;23.258;2022-08-24T10:26:21;94556.97;;;30.58;45.13
11347;BME280;5728;42.722;23.258;2022-08-24T10:29:11;94557.84;;;30.49;45.55
11347;BME280;5728;42.722;23.258;2022-08-24T10:31:55;94563.97;;;31.14;45.09
11347;BME280;5728;42.722;23.258;2022-08-24T10:34:36;94558.75;;;31.30;43.33
11347;BME280;5728;42.722;23.258;2022-08-24T10:37:36;94569.59;;;31.55;44.26
11347;BME280;5728;42.722;23.258;2022-08-24T10:40:15;94578.53;;;31.99;41.96
11347;BME280;5728;42.722;23.258;2022-08-24T10:43:16;94571.03;;;30.23;44.39
11347;BME280;5728;42.722;23.258;2022-08-24T10:46:16;94562.59;;;31.10;44.28
11347;BME280;5728;42.722;23.258;2022-08-24T10:49:08;94580.41;;;32.07;43.77
11347;BME280;5728;42.722;23.258;2022-08-24T10:51:57;94573.84;;;31.84;44.37
11347;BME280;5728;42.722;23.258;2022-08-24T10:54:32;94578.66;;;31.80;44.60
11347;BME280;5728;42.722;23.258;2022-08-24T10:57:05;94565.06;;;31.56;45.13
11347;BME280;5728;42.722;23.258;2022-08-24T10:59:39;94570.47;;;31.82;44.99
11347;BME280;5728;42.722;23.258;2022-08-24T11:02:28;94570.81;;;31.61;45.55
11347;BME280;5728;42.722;23.258;2022-08-24T11:04:56;94568.47;;;30.96;47.35
11347;BME280;5728;42.722;23.258;2022-08-24T11:07:23;94574.13;;;30.28;48.69
11347;BME280;5728;42.722;23.258;2022-08-24T11:09:52;94569.09;;;30.16;49.23
11347;BME280;5728;42.722;23.258;2022-08-24T11:12:24;94564.53;;;29.80;50.11
11347;BME280;5728;42.722;23.258;2022-08-24T11:14:55;94566.81;;;29.55;50.48
11347;BME280;5728;42.722;23.258;2022-08-24T11:17:24;94562.63;;;30.18;49.66
11347;BME280;5728;42.722;23.258;2022-08-24T11:19:51;94560.47;;;30.86;48.62
11347;BME280;5728;42.722;23.258;2022-08-24T11:22:31;94564.66;;;31.16;47.08
11347;BME280;5728;42.722;23.258;2022-08-24T11:25:05;94553.09;;;30.98;46.65
11347;BME280;5728;42.722;23.258;2022-08-24T11:27:35;94545.34;;;30.94;47.50
11347;BME280;5728;42.722;23.258;2022-08-24T11:30:11;94551.09;;;30.72;47.20
11347;BME280;5728;42.722;23.258;2022-08-24T11:32:42;94551.63;;;30.58;47.55
11347;BME280;5728;42.722;23.258;2022-08-24T11:35:23;94547.63;;;30.35;47.83
11347;BME280;5728;42.722;23.258;2022-08-24T11:37:54;94540.34;;;30.55;47.14
11347;BME280;5728;42.722;23.258;2022-08-24T11:40:26;94545.28;;;31.22;46.61
11347;BME280;5728;42.722;23.258;2022-08-24T11:43:21;94550.19;;;31.44;44.98
11347;BME280;5728;42.722;23.258;2022-08-24T11:46:04;94550.50;;;32.28;44.30
11347;BME280;5728;42.722;23.258;2022-08-24T11:48:40;94541.59;;;32.19;43.70
11347;BME280;5728;42.722;23.258;2022-08-24T11:51:16;94541.13;;;31.80;44.97
11347;BME280;5728;42.722;23.258;2022-08-24T11:53:55;94527.22;;;31.85;44.75
11347;BME280;5728;42.722;23.258;2022-08-24T11:56:30;94536.41;;;31.74;45.20
11347;BME280;5728;42.722;23.258;2022-08-24T11:59:04;94553.72;;;31.44;46.56
11347;BME280;5728;42.722;23.258;2022-08-24T12:01:38;94514.06;;;30.04;49.02
11347;BME280;5728;42.722;23.258;2022-08-24T12:04:30;94543.16;;;29.80;49.82
11347;BME280;5728;42.722;23.258;2022-08-24T12:07:09;94528.81;;;29.52;51.13
11347;BME280;5728;42.722;23.258;2022-08-24T12:09:53;94541.19;;;29.05;52.28
11347;BME280;5728;42.722;23.258;2022-08-24T12:12:27;94539.50;;;28.85;53.32
11347;BME280;5728;42.722;23.258;2022-08-24T12:15:03;94548.75;;;28.90;53.72
11347;BME280;5728;42.722;23.258;2022-08-24T12:17:45;94540.88;;;28.98;52.84
11347;BME280;5728;42.722;23.258;2022-08-24T12:21:04;94518.72;;;29.07;52.35
11347;BME280;5728;42.722;23.258;2022-08-24T12:23:52;94537.41;;;29.36;51.73
11347;BME280;5728;42.722;23.258;2022-08-24T12:26:27;94530.34;;;30.20;49.85
11347;BME280;5728;42.722;23.258;2022-08-24T12:29:00;94521.94;;;30.69;48.37
11347;BME280;5728;42.722;23.258;2022-08-24T12:31:35;94531.56;;;30.62;48.81
11347;BME280;5728;42.722;23.258;2022-08-24T12:34:10;94523.09;;;31.12;46.72
11347;BME280;5728;42.722;23.258;2022-08-24T12:37:07;94506.91;;;30.86;47.32
11347;BME280;5728;42.722;23.258;2022-08-24T12:39:41;94530.88;;;30.33;49.96
11347;BME280;5728;42.722;23.258;2022-08-24T12:42:15;94527.00;;;30.18;50.99
11347;BME280;5728;42.722;23.258;2022-08-24T12:44:49;94526.00;;;29.63;51.24
11347;BME280;5728;42.722;23.258;2022-08-24T12:47:22;94521.25;;;29.47;51.50
11347;BME280;5728;42.722;23.258;2022-08-24T12:49:56;94541.75;;;29.18;52.64
11347;BME280;5728;42.722;23.258;2022-08-24T12:53:00;94530.22;;;28.89;53.42
11347;BME280;5728;42.722;23.258;2022-08-24T12:56:04;94520.53;;;29.07;53.24
11347;BME280;5728;42.722;23.258;2022-08-24T12:58:56;94525.03;;;29.06;53.14
11347;BME280;5728;42.722;23.258;2022-08-24T13:01:27;94516.13;;;29.63;51.69
11347;BME280;5728;42.722;23.258;2022-08-24T13:04:04;94518.16;;;29.42;51.79
11347;BME280;5728;42.722;23.258;2022-08-24T13:06:40;94522.34;;;28.97;53.31
11347;BME280;5728;42.722;23.258;2022-08-24T13:09:14;94511.69;;;28.87;53.47
11347;BME280;5728;42.722;23.258;2022-08-24T13:11:42;94492.53;;;28.73;54.01
11347;BME280;5728;42.722;23.258;2022-08-24T13:14:19;94521.75;;;28.65;55.09
11347;BME280;5728;42.722;23.258;2022-08-24T13:17:06;94529.38;;;28.98;54.56
11347;BME280;5728;42.722;23.258;2022-08-24T13:19:37;94529.81;;;29.41;52.45
11347;BME280;5728;42.722;23.258;2022-08-24T13:22:44;94534.97;;;29.91;51.50
11347;BME280;5728;42.722;23.258;2022-08-24T13:25:36;94544.72;;;29.44;52.44
11347;BME280;5728;42.722;23.258;2022-08-24T13:28:12;94551.06;;;29.24;53.24
11347;BME280;5728;42.722;23.258;2022-08-24T13:31:14;94550.41;;;28.32;54.47
11347;BME280;5728;42.722;23.258;2022-08-24T13:33:45;94567.25;;;28.03;56.41
11347;BME280;5728;42.722;23.258;2022-08-24T13:36:52;94564.81;;;28.00;56.56
11347;BME280;5728;42.722;23.258;2022-08-24T13:49:24;94548.44;;;27.01;61.05
11347;BME280;5728;42.722;23.258;2022-08-24T13:52:05;94552.28;;;26.54;61.47